SAMR/AFA METAR and TAF weather

Enter ICAO airport designator
Station Type Date Time Source
SAMR METAR 2019/06/13 14:10 UTC NOAA

SAMR 131410Z 00000KT 4000 BR FEW035 06/05 Q1014


Station Type Date Time Source
SAMR Decoded METAR 2019/06/13 14:10 UTC NOAA

San Rafael Aerodrome, Argentina (SAMR) 34-35S 068-24W 748M
Jun 13, 2019 - 10:10 AM EDT / 2019.06.13 1410 UTC
Wind: Calm:0
Visibility: 2 mile(s):0
Sky conditions: mostly clear
Weather: mist
Temperature: 42 F (6 C)
Dew Point: 41 F (5 C)
Relative Humidity: 93%
Pressure (altimeter): 29.94 in. Hg (1014 hPa)
ob: SAMR 131410Z 00000KT 4000 BR FEW035 06/05 Q1014
cycle: 14

Station Type Date Time Source
SAMR TAF 2019/06/14 06:00 UTC NOAA

TAF SAMR 140500Z 1406/1506 14005KT 9999 SCT030 SCT040 TX08/1420ZTN00/1410Z
BECMG 1418/1420 14010KT 6000 DZ FEW020 OVC030=TAF SAOU 140500Z 1406/1506 14005KT 8000 BR FEW020 OVC030 TX12/1419ZTN05/1409Z
BECMG 1419/1421 18010KT 6000 DZ FEW015 OVC020 SCT030=TAF SANU 140500Z 1406/1506 16010KT 9999 FEW030 SCT040 TX11/1420ZTN01/1410Z
BECMG 1411/1412 00000KT 3000 BR FEW030 SCT040
BECMG1420/1422 14010KT 6000 DZ FEW020 SCT030 OVC030

Example: see airport list